Map

Track Data

SID SEASON NUMBER BASIN SUBBASIN NAME ISO_TIME NATURE LAT LON WMO_WIND WMO_PRES WMO_AGENCY TRACK_TYPE DIST2LAND LANDFALL IFLAG USA_AGENCY USA_ATCF_ID USA_LAT USA_LON USA_RECORD USA_STATUS USA_WIND USA_PRES USA_SSHS USA_R34_NE USA_R34_SE USA_R34_SW USA_R34_NW USA_R50_NE USA_R50_SE USA_R50_SW USA_R50_NW USA_R64_NE USA_R64_SE USA_R64_SW USA_R64_NW USA_POCI USA_ROCI USA_RMW USA_EYE TOKYO_LAT TOKYO_LON TOKYO_GRADE TOKYO_WIND TOKYO_PRES TOKYO_R50_DIR TOKYO_R50_LONG TOKYO_R50_SHORT TOKYO_R30_DIR TOKYO_R30_LONG TOKYO_R30_SHORT TOKYO_LAND CMA_LAT CMA_LON CMA_CAT CMA_WIND CMA_PRES HKO_LAT HKO_LON HKO_CAT HKO_WIND HKO_PRES NEWDELHI_LAT NEWDELHI_LON NEWDELHI_GRADE NEWDELHI_WIND NEWDELHI_PRES NEWDELHI_CI NEWDELHI_DP NEWDELHI_POCI REUNION_LAT REUNION_LON REUNION_TYPE REUNION_WIND REUNION_PRES REUNION_TNUM REUNION_CI REUNION_RMW REUNION_R34_NE REUNION_R34_SE REUNION_R34_SW REUNION_R34_NW REUNION_R50_NE REUNION_R50_SE REUNION_R50_SW REUNION_R50_NW REUNION_R64_NE REUNION_R64_SE REUNION_R64_SW REUNION_R64_NW BOM_LAT BOM_LON BOM_TYPE BOM_WIND BOM_PRES BOM_TNUM BOM_CI BOM_RMW BOM_R34_NE BOM_R34_SE BOM_R34_SW BOM_R34_NW BOM_R50_NE BOM_R50_SE BOM_R50_SW BOM_R50_NW BOM_R64_NE BOM_R64_SE BOM_R64_SW BOM_R64_NW BOM_ROCI BOM_POCI BOM_EYE BOM_POS_METHOD BOM_PRES_METHOD NADI_LAT NADI_LON NADI_CAT NADI_WIND NADI_PRES WELLINGTON_LAT WELLINGTON_LON WELLINGTON_WIND WELLINGTON_PRES DS824_LAT DS824_LON DS824_STAGE DS824_WIND DS824_PRES TD9636_LAT TD9636_LON TD9636_STAGE TD9636_WIND TD9636_PRES TD9635_LAT TD9635_LON TD9635_WIND TD9635_PRES TD9635_ROCI NEUMANN_LAT NEUMANN_LON NEUMANN_CLASS NEUMANN_WIND NEUMANN_PRES MLC_LAT MLC_LON MLC_CLASS MLC_WIND MLC_PRES USA_GUST BOM_GUST BOM_GUST_PER REUNION_GUST REUNION_GUST_PER USA_SEAHGT USA_SEARAD_NE USA_SEARAD_SE USA_SEARAD_SW USA_SEARAD_NW STORM_SPEED STORM_DIR
1972167N20271 1972 46 NA NA AGNES 1972-06-14 12:00:00 TS 20.0000 -89.0000 25 hurdat_atl main 0 0 O_____________ hurdat_atl AL021972 20.0000 -89.0000 TD 25 -1 3 90
1972167N20271 1972 46 NA NA AGNES 1972-06-14 15:00:00 TS 20.0000 -88.8500 main 0 0 P_____________ AL021972 20.0000 -88.8500 TD 25 -1 3 90
1972167N20271 1972 46 NA NA AGNES 1972-06-14 18:00:00 TS 20.0000 -88.7000 25 hurdat_atl main 0 0 O_____________ hurdat_atl AL021972 20.0000 -88.7000 TD 25 -1 3 90
1972167N20271 1972 46 NA NA AGNES 1972-06-14 21:00:00 TS 20.0000 -88.5500 main 0 0 P_____________ AL021972 20.0000 -88.5500 TD 25 -1 3 90
1972167N20271 1972 46 NA NA AGNES 1972-06-15 00:00:00 TS 20.0000 -88.4000 25 hurdat_atl main 0 0 O_____________ hurdat_atl AL021972 20.0000 -88.4000 TD 25 -1 3 90
1972167N20271 1972 46 NA NA AGNES 1972-06-15 03:00:00 TS 20.0000 -88.2500 main 0 0 P_____________ AL021972 20.0000 -88.2500 TD 25 -1 3 90
1972167N20271 1972 46 NA NA AGNES 1972-06-15 06:00:00 TS 20.0000 -88.1000 25 hurdat_atl main 0 0 O_____________ hurdat_atl AL021972 20.0000 -88.1000 TD 25 -1 3 90
1972167N20271 1972 46 NA NA AGNES 1972-06-15 09:00:00 TS 20.0000 -87.9575 main 0 0 P_____________ AL021972 20.0000 -87.9575 TD 25 -1 3 90
1972167N20271 1972 46 NA NA AGNES 1972-06-15 12:00:00 TS 20.0000 -87.8000 25 hurdat_atl main 0 0 O_____________ hurdat_atl AL021972 20.0000 -87.8000 TD 25 -1 3 90
1972167N20271 1972 46 NA NA AGNES 1972-06-15 15:00:00 TS 20.0000 -87.6075 main 0 0 P_____________ AL021972 20.0000 -87.6075 TD 27 -1 4 90
1972167N20271 1972 46 NA CS AGNES 1972-06-15 18:00:00 TS 20.0000 -87.4000 30 hurdat_atl main 10 10 O_____________ hurdat_atl AL021972 20.0000 -87.4000 TD 30 -1 4 90
1972167N20271 1972 46 NA CS AGNES 1972-06-15 21:00:00 TS 20.0000 -87.2000 main 31 31 P_____________ AL021972 20.0000 -87.2000 TD 30 -1 4 90
1972167N20271 1972 46 NA CS AGNES 1972-06-16 00:00:00 TS 20.0000 -87.0000 30 1001 hurdat_atl main 52 52 O_____________ hurdat_atl AL021972 20.0000 -87.0000 TD 30 1001 -1 4 90
1972167N20271 1972 46 NA CS AGNES 1972-06-16 03:00:00 TS 20.0000 -86.8000 main 73 73 P_____________ AL021972 20.0000 -86.8000 TD 30 1000 -1 4 90
1972167N20271 1972 46 NA CS AGNES 1972-06-16 06:00:00 TS 20.0000 -86.6000 30 hurdat_atl main 91 91 I_____________ hurdat_atl AL021972 20.0000 -86.6000 TD 30 999 -1 4 92
1972167N20271 1972 46 NA CS AGNES 1972-06-16 09:00:00 TS 19.9850 -86.3999 main 103 103 P_____________ AL021972 19.9850 -86.3999 TD 35 998 0 4 90
1972167N20271 1972 46 NA CS AGNES 1972-06-16 12:00:00 TS 20.0000 -86.2000 40 998 hurdat_atl main 115 115 O_____________ hurdat_atl AL021972 20.0000 -86.2000 TS 40 998 0 4 76
1972167N20271 1972 46 NA CS AGNES 1972-06-16 15:00:00 TS 20.0775 -85.9925 main 122 122 P_____________ AL021972 20.0775 -85.9925 TS 42 0 4 62
1972167N20271 1972 46 NA CS AGNES 1972-06-16 18:00:00 TS 20.2000 -85.8000 45 hurdat_atl main 132 132 O_____________ hurdat_atl AL021972 20.2000 -85.8000 TS 45 0 4 52
1972167N20271 1972 46 NA CS AGNES 1972-06-16 21:00:00 TS 20.3350 -85.6350 main 145 138 P_____________ AL021972 20.3350 -85.6350 TS 47 0 4 43
1972167N20271 1972 46 NA CS AGNES 1972-06-17 00:00:00 TS 20.5000 -85.5000 50 hurdat_atl main 141 136 O_____________ hurdat_atl AL021972 20.5000 -85.5000 TS 50 0 4 34
1972167N20271 1972 46 NA CS AGNES 1972-06-17 03:00:00 TS 20.6850 -85.3850 main 137 113 P_____________ AL021972 20.6850 -85.3850 TS 50 0 4 25
1972167N20271 1972 46 NA CS AGNES 1972-06-17 06:00:00 TS 20.9000 -85.3000 50 hurdat_atl main 113 88 O_____________ hurdat_atl AL021972 20.9000 -85.3000 TS 50 0 5 18
1972167N20271 1972 46 NA CS AGNES 1972-06-17 09:00:00 TS 21.1425 -85.2275 main 88 59 P_____________ AL021972 21.1425 -85.2275 TS 50 0 5 11
1972167N20271 1972 46 NA CS AGNES 1972-06-17 12:00:00 TS 21.4000 -85.2000 50 hurdat_atl main 59 39 O_____________ hurdat_atl AL021972 21.4000 -85.2000 TS 50 0 5 357
1972167N20271 1972 46 NA CS AGNES 1972-06-17 15:00:00 TS 21.6500 -85.2349 main 30 30 P_____________ AL021972 21.6500 -85.2349 TS 52 0 5 349
1972167N20271 1972 46 NA GM AGNES 1972-06-17 18:00:00 TS 21.9000 -85.3000 55 hurdat_atl main 30 30 O_____________ hurdat_atl AL021972 21.9000 -85.3000 TS 55 0 5 348
1972167N20271 1972 46 NA GM AGNES 1972-06-17 21:00:00 TS 22.1425 -85.3500 main 46 46 P_____________ AL021972 22.1425 -85.3500 TS 57 0 5 350
1972167N20271 1972 46 NA GM AGNES 1972-06-18 00:00:00 TS 22.4000 -85.4000 60 hurdat_atl main 69 69 O_____________ hurdat_atl AL021972 22.4000 -85.4000 TS 60 0 5 350
1972167N20271 1972 46 NA GM AGNES 1972-06-18 03:00:00 TS 22.6775 -85.4500 main 103 103 P_____________ AL021972 22.6775 -85.4500 TS 60 0 6 352
1972167N20271 1972 46 NA GM AGNES 1972-06-18 06:00:00 TS 23.0000 -85.5000 60 hurdat_atl main 133 133 O_____________ hurdat_atl AL021972 23.0000 -85.5000 TS 60 0 7 353
1972167N20271 1972 46 NA GM AGNES 1972-06-18 09:00:00 TS 23.3700 -85.5500 main 173 173 P_____________ AL021972 23.3700 -85.5500 TS 62 0 8 354
1972167N20271 1972 46 NA GM AGNES 1972-06-18 12:00:00 TS 23.8000 -85.6000 65 986 hurdat_atl main 203 203 O_____________ hurdat_atl AL021972 23.8000 -85.6000 HU 65 986 1 9 354
1972167N20271 1972 46 NA GM AGNES 1972-06-18 15:00:00 TS 24.2700 -85.6574 main 248 248 P_____________ AL021972 24.2700 -85.6574 HU 65 984 1 10 355
1972167N20271 1972 46 NA GM AGNES 1972-06-18 18:00:00 TS 24.8000 -85.7000 65 983 hurdat_atl main 291 291 O_____________ hurdat_atl AL021972 24.8000 -85.7000 HU 65 983 1 11 358
1972167N20271 1972 46 NA GM AGNES 1972-06-18 21:00:00 TS 25.3850 -85.7076 main 347 340 P_____________ AL021972 25.3850 -85.7076 HU 70 982 1 12 1
1972167N20271 1972 46 NA GM AGNES 1972-06-19 00:00:00 TS 26.0000 -85.7000 75 982 hurdat_atl main 340 312 O_____________ hurdat_atl AL021972 26.0000 -85.7000 HU 75 982 1 12 0
1972167N20271 1972 46 NA GM AGNES 1972-06-19 03:00:00 TS 26.5925 -85.7000 main 312 280 P_____________ AL021972 26.5925 -85.7000 HU 75 980 1 12 1
1972167N20271 1972 46 NA GM AGNES 1972-06-19 06:00:00 TS 27.2000 -85.7000 75 978 hurdat_atl main 280 214 O_____________ hurdat_atl AL021972 27.2000 -85.7000 HU 75 978 1 13 0
1972167N20271 1972 46 NA GM AGNES 1972-06-19 09:00:00 TS 27.8575 -85.7074 main 203 137 P_____________ AL021972 27.8575 -85.7074 HU 75 978 1 13 1
1972167N20271 1972 46 NA GM AGNES 1972-06-19 12:00:00 TS 28.5000 -85.7000 75 978 hurdat_atl main 137 83 O_____________ hurdat_atl AL021972 28.5000 -85.7000 HU 75 978 1 12 1
1972167N20271 1972 46 NA GM AGNES 1972-06-19 15:00:00 TS 29.0799 -85.6798 main 72 22 P_____________ AL021972 29.0799 -85.6798 HU 70 980 1 11 5
1972167N20271 1972 46 NA GM AGNES 1972-06-19 18:00:00 TS 29.6000 -85.6000 65 983 hurdat_atl main 22 0 O_____________ hurdat_atl AL021972 29.6000 -85.6000 HU 65 983 1 10 12
1972167N20271 1972 46 NA GM AGNES 1972-06-19 21:00:00 TS 30.0650 -85.4300 main 0 0 P_____________ AL021972 30.0650 -85.4300 HU 55 984 0 10 21
1972167N20271 1972 46 NA NA AGNES 1972-06-20 00:00:00 TS 30.5000 -85.2000 45 hurdat_atl main 0 0 I_____________ hurdat_atl AL021972 30.5000 -85.2000 TS 45 986 0 10 23
1972167N20271 1972 46 NA NA AGNES 1972-06-20 03:00:00 TS 30.9573 -84.9870 main 0 0 P_____________ AL021972 30.9573 -84.9870 TS 37 988 0 10 25
1972167N20271 1972 46 NA NA AGNES 1972-06-20 06:00:00 TS 31.4000 -84.7000 30 990 hurdat_atl main 0 0 O_____________ hurdat_atl AL021972 31.4000 -84.7000 TD 30 990 -1 10 35
1972167N20271 1972 46 NA NA AGNES 1972-06-20 09:00:00 TS 31.8150 -84.2874 main 0 0 P_____________ AL021972 31.8150 -84.2874 TD 30 990 -1 11 44
1972167N20271 1972 46 NA NA AGNES 1972-06-20 12:00:00 TS 32.2000 -83.8000 30 hurdat_atl main 0 0 I_____________ hurdat_atl AL021972 32.2000 -83.8000 TD 30 991 -1 11 48
1972167N20271 1972 46 NA NA AGNES 1972-06-20 15:00:00 TS 32.5648 -83.3146 main 0 0 P_____________ AL021972 32.5648 -83.3146 TD 30 991 -1 11 50
1972167N20271 1972 46 NA NA AGNES 1972-06-20 18:00:00 TS 32.9000 -82.8000 30 992 hurdat_atl main 0 0 O_____________ hurdat_atl AL021972 32.9000 -82.8000 TD 30 992 -1 11 52
1972167N20271 1972 46 NA NA AGNES 1972-06-20 21:00:00 TS 33.2294 -82.2873 main 0 0 P_____________ AL021972 33.2294 -82.2873 TD 30 992 -1 11 57
1972167N20271 1972 46 NA NA AGNES 1972-06-21 00:00:00 TS 33.5000 -81.7000 30 992 hurdat_atl main 0 0 O_____________ hurdat_atl AL021972 33.5000 -81.7000 TD 30 992 -1 12 69
1972167N20271 1972 46 NA NA AGNES 1972-06-21 03:00:00 TS 33.6504 -80.9565 main 0 0 P_____________ AL021972 33.6504 -80.9565 TD 30 991 -1 13 76
1972167N20271 1972 46 NA NA AGNES 1972-06-21 06:00:00 TS 33.8000 -80.2000 30 hurdat_atl main 0 0 I_____________ hurdat_atl AL021972 33.8000 -80.2000 TD 30 991 -1 12 70
1972167N20271 1972 46 NA NA AGNES 1972-06-21 09:00:00 TS 34.0616 -79.5919 main 0 0 P_____________ AL021972 34.0616 -79.5919 TD 30 990 -1 12 59
1972167N20271 1972 46 NA NA AGNES 1972-06-21 12:00:00 TS 34.4000 -79.0000 30 990 hurdat_atl main 0 0 O_____________ hurdat_atl AL021972 34.4000 -79.0000 TD 30 990 -1 13 54
1972167N20271 1972 46 NA NA AGNES 1972-06-21 15:00:00 TS 34.7991 -78.3523 main 0 0 P_____________ AL021972 34.7991 -78.3523 TD 35 989 0 14 55
1972167N20271 1972 46 NA NA AGNES 1972-06-21 18:00:00 TS 35.2000 -77.6000 40 988 hurdat_atl main 0 0 O_____________ hurdat_atl AL021972 35.2000 -77.6000 TS 40 988 0 15 64
1972167N20271 1972 46 NA NA AGNES 1972-06-21 21:00:00 TS 35.4784 -76.6486 main 9 0 P_____________ AL021972 35.4784 -76.6486 TS 42 0 17 69
1972167N20271 1972 46 NA NA AGNES 1972-06-22 00:00:00 TS 35.8000 -75.7000 45 hurdat_atl main 0 0 O_____________ hurdat_atl AL021972 35.8000 -75.7000 TS 45 0 16 59
1972167N20271 1972 46 NA NA AGNES 1972-06-22 03:00:00 TS 36.2966 -74.9470 main 71 71 P_____________ AL021972 36.2966 -74.9470 TS 47 0 16 46
1972167N20271 1972 46 NA NA AGNES 1972-06-22 06:00:00 TS 36.9000 -74.3000 50 hurdat_atl main 140 140 O_____________ hurdat_atl AL021972 36.9000 -74.3000 TS 50 0 16 43
1972167N20271 1972 46 NA NA AGNES 1972-06-22 09:00:00 TS 37.4829 -73.5744 main 158 158 P_____________ AL021972 37.4829 -73.5744 TS 55 0 16 36
1972167N20271 1972 46 NA NA AGNES 1972-06-22 12:00:00 TS 38.2000 -73.1000 60 977 hurdat_atl main 170 112 O_____________ hurdat_atl AL021972 38.2000 -73.1000 TS 60 977 0 17 13
1972167N20271 1972 46 NA NA AGNES 1972-06-22 15:00:00 TS 39.1842 -73.0760 main 108 50 P_____________ AL021972 39.1842 -73.0760 TS 57 978 0 20 353
1972167N20271 1972 46 NA NA AGNES 1972-06-22 18:00:00 TS 40.2000 -73.4000 55 980 hurdat_atl main 45 0 O_____________ hurdat_atl AL021972 40.2000 -73.4000 TS 55 980 0 19 341
1972167N20271 1972 46 NA NA AGNES 1972-06-22 21:00:00 TS 41.0184 -73.9061 main 0 0 P_____________ AL021972 41.0184 -73.9061 TS 50 0 17 331
1972167N20271 1972 46 NA NA AGNES 1972-06-23 00:00:00 TS 41.7000 -74.5000 45 hurdat_atl main 0 O_____________ hurdat_atl AL021972 41.7000 -74.5000 TS 45 0 16 327

About IBTrACS Database

This database is a web-friendly format of International Best Track Archive for Climate Stewardship (IBTrACS), a global best track data archive curated by NOAA dating back to 1842.

Updated: 2021-10-19